Time;durP1;ratioP1;P1;durP2;ratioP2;P2;SDS_P1;SDS_P2;PMS_P1;PMS_P2;Temp;Humidity;BMP_temperature;BMP_pressure;BME280_temperature;BME280_humidity;BME280_pressure;Samples;Min_cycle;Max_cycle;Signal;HPM_P1;HPM_P2
2023/05/29 00:00:07;;;;;;;11.17;4.50;;;;;;;17.57;50.56;100433.33;123805;1099;104221;-78
2023/05/29 00:02:58;;;;;;;11.77;4.13;;;;;;;17.55;50.98;100434.22;123661;1099;104352;-77
2023/05/29 00:05:27;;;;;;;10.37;4.57;;;;;;;17.50;50.56;100431.54;123624;1099;104259;-78
2023/05/29 00:07:56;;;;;;;8.87;4.50;;;;;;;17.49;50.78;100442.14;123680;1099;104319;-78
2023/05/29 00:10:24;;;;;;;8.60;3.80;;;;;;;17.46;51.03;100443.00;123711;1099;104271;-78
2023/05/29 00:12:55;;;;;;;8.03;4.00;;;;;;;17.44;50.77;100442.11;123781;1099;104392;-78
2023/05/29 00:15:24;;;;;;;7.47;3.87;;;;;;;17.41;50.68;100435.01;123666;1099;104329;-77
2023/05/29 00:17:52;;;;;;;8.27;3.50;;;;;;;17.41;50.96;100436.78;123712;1099;104457;-78
2023/05/29 00:20:21;;;;;;;10.70;3.87;;;;;;;17.38;51.10;100432.34;123628;1099;104239;-77
2023/05/29 00:22:49;;;;;;;6.73;3.70;;;;;;;17.38;51.12;100427.03;123708;1099;104348;-77
2023/05/29 00:25:18;;;;;;;8.30;3.63;;;;;;;17.39;51.08;100433.20;123619;1099;105259;-77
2023/05/29 00:27:47;;;;;;;7.27;3.60;;;;;;;17.38;50.68;100426.16;123349;1102;107995;-77
2023/05/29 00:30:15;;;;;;;10.00;3.80;;;;;;;17.36;50.76;100430.57;123620;1098;104294;-77
2023/05/29 00:32:45;;;;;;;9.27;3.57;;;;;;;17.36;50.63;100427.92;123618;1099;104271;-78
2023/05/29 00:35:14;;;;;;;11.87;3.67;;;;;;;17.34;51.04;100434.95;123691;1099;104287;-78
2023/05/29 00:37:42;;;;;;;9.37;3.50;;;;;;;17.33;50.68;100438.50;123690;1099;104360;-77
2023/05/29 00:40:12;;;;;;;8.10;3.60;;;;;;;17.32;51.20;100432.29;123391;1099;104373;-77
2023/05/29 00:42:40;;;;;;;8.67;3.40;;;;;;;17.31;50.98;100433.19;123728;1099;104236;-78
2023/05/29 00:45:10;;;;;;;8.10;3.60;;;;;;;17.28;50.89;100430.52;123654;1099;104268;-77
2023/05/29 00:47:39;;;;;;;9.13;3.90;;;;;;;17.27;50.63;100428.73;123779;1099;104339;-79
2023/05/29 00:50:11;;;;;;;7.90;3.63;;;;;;;17.28;50.98;100429.61;123788;1099;104316;-79
2023/05/29 00:52:41;;;;;;;8.15;3.50;;;;;;;17.28;50.87;100422.56;123809;1099;104258;-79
2023/05/29 00:55:11;;;;;;;8.73;3.70;;;;;;;17.28;50.67;100425.21;123787;1099;104306;-77
2023/05/29 00:57:39;;;;;;;10.03;3.80;;;;;;;17.28;51.07;100430.52;123772;1099;104341;-78
2023/05/29 01:00:13;;;;;;;7.23;3.60;;;;;;;17.28;51.01;100426.95;123763;1099;104235;-77
2023/05/29 01:02:44;;;;;;;10.07;3.50;;;;;;;17.25;50.61;100434.02;123522;1099;104303;-78
2023/05/29 01:05:15;;;;;;;9.43;3.70;;;;;;;17.20;50.87;100427.80;123823;1099;104335;-77
2023/05/29 01:07:57;;;;;;;6.63;3.60;;;;;;;17.15;50.98;100424.21;123485;1099;104428;-77
2023/05/29 01:10:26;;;;;;;12.80;3.80;;;;;;;17.11;50.99;100432.12;123870;1099;104240;-79
2023/05/29 01:13:04;;;;;;;11.67;3.63;;;;;;;17.09;50.60;100429.47;123777;1099;104341;-77
2023/05/29 01:15:43;;;;;;;8.47;3.20;;;;;;;17.06;51.24;100430.34;123778;1099;104297;-78
2023/05/29 01:18:23;;;;;;;6.67;3.23;;;;;;;17.05;51.23;100432.98;123730;1098;104508;-77
2023/05/29 01:21:00;;;;;;;9.17;3.37;;;;;;;17.06;51.27;100434.74;123799;1099;104287;-77
2023/05/29 01:24:03;;;;;;;8.73;3.50;;;;;;;17.07;50.72;100434.75;123808;1099;104252;-77
2023/05/29 01:26:56;;;;;;;25.97;12.30;;;;;;;17.09;51.34;100425.94;123578;1102;104360;-77
2023/05/29 01:29:28;;;;;;;23.40;9.03;;;;;;;17.10;51.05;100427.72;123500;1099;117848;-77
2023/05/29 01:31:58;;;;;;;21.17;8.60;;;;;;;17.11;51.13;100427.73;123918;1099;104508;-78
2023/05/29 01:34:27;;;;;;;9.57;4.90;;;;;;;17.12;51.28;100432.14;123842;1099;104316;-80
2023/05/29 01:36:55;;;;;;;10.97;4.03;;;;;;;17.11;50.90;100433.03;123846;1098;104274;-78
2023/05/29 01:39:25;;;;;;;8.83;3.57;;;;;;;17.10;51.40;100435.67;123506;1099;104368;-78
2023/05/29 01:41:55;;;;;;;10.30;3.93;;;;;;;17.07;51.34;100429.45;123652;1099;104248;-76
2023/05/29 01:44:25;;;;;;;10.60;3.60;;;;;;;17.02;51.23;100423.23;123850;1099;104265;-77
2023/05/29 01:46:54;;;;;;;10.80;3.63;;;;;;;16.97;51.61;100418.77;123715;1099;104312;-77
2023/05/29 01:49:26;;;;;;;10.40;3.50;;;;;;;16.91;51.28;100424.01;123820;1099;104338;-77
2023/05/29 01:51:55;;;;;;;6.40;3.37;;;;;;;16.85;51.43;100423.06;123666;1098;104345;-79
2023/05/29 01:54:23;;;;;;;8.95;3.55;;;;;;;16.79;51.50;100428.30;123628;1099;104271;-78
2023/05/29 01:56:52;;;;;;;9.77;3.23;;;;;;;16.77;51.74;100434.48;123437;1102;104389;-77
2023/05/29 01:59:22;;;;;;;9.27;3.67;;;;;;;16.75;51.82;100428.26;123448;1099;104239;-78
2023/05/29 02:01:51;;;;;;;9.47;3.40;;;;;;;16.75;51.89;100429.16;123515;1102;104306;-77
2023/05/29 02:04:20;;;;;;;7.17;3.27;;;;;;;16.75;51.45;100438.85;123535;1099;104239;-77
2023/05/29 02:06:48;;;;;;;8.03;3.63;;;;;;;16.75;51.72;100437.12;123654;1099;104194;-76
2023/05/29 02:09:18;;;;;;;13.33;3.70;;;;;;;16.73;51.57;100444.14;123282;1100;104421;-77
2023/05/29 02:11:46;;;;;;;7.70;3.43;;;;;;;16.70;51.96;100438.81;123642;1099;104315;-77
2023/05/29 02:14:15;;;;;;;8.10;3.85;;;;;;;16.70;51.91;100446.76;123508;1099;104236;-77
2023/05/29 02:16:44;;;;;;;7.50;3.33;;;;;;;16.71;52.09;100456.50;123360;1098;104296;-78
2023/05/29 02:19:13;;;;;;;8.00;3.20;;;;;;;16.69;52.20;100453.83;123353;1102;104408;-79
2023/05/29 02:21:41;;;;;;;6.93;3.30;;;;;;;16.68;51.71;100454.69;123616;1099;104520;-78
2023/05/29 02:24:10;;;;;;;8.10;3.20;;;;;;;16.66;51.74;100455.57;123654;1099;104232;-77
2023/05/29 02:26:38;;;;;;;7.00;3.20;;;;;;;16.64;52.43;100462.59;123608;1099;104303;-78
2023/05/29 02:29:07;;;;;;;12.17;3.37;;;;;;;16.60;52.22;100460.80;123572;1099;104348;-78
2023/05/29 02:31:36;;;;;;;7.90;3.73;;;;;;;16.57;52.00;100460.77;123560;1099;104309;-77
2023/05/29 02:34:07;;;;;;;5.87;3.17;;;;;;;16.53;52.36;100463.39;123582;1099;104354;-77
2023/05/29 02:36:37;;;;;;;6.67;3.40;;;;;;;16.49;52.54;100458.92;123584;1099;104245;-77
2023/05/29 02:39:06;;;;;;;6.80;3.63;;;;;;;16.46;51.93;100466.83;123564;1099;104220;-77
2023/05/29 02:41:34;;;;;;;11.23;3.57;;;;;;;16.44;52.41;100468.58;123487;1099;104290;-78
2023/05/29 02:44:03;;;;;;;9.63;3.30;;;;;;;16.43;52.56;100469.44;123736;1099;104387;-78
2023/05/29 02:46:31;;;;;;;6.63;3.13;;;;;;;16.42;52.58;100470.30;123740;1099;104274;-78
2023/05/29 02:49:00;;;;;;;8.93;3.70;;;;;;;16.44;52.06;100473.88;123623;1099;104261;-79
2023/05/29 02:51:28;;;;;;;10.80;3.73;;;;;;;16.45;52.61;100464.16;123619;1099;104264;-78
2023/05/29 02:53:57;;;;;;;8.83;3.37;;;;;;;16.46;52.70;100476.55;123350;1099;104356;-78
2023/05/29 02:56:25;;;;;;;9.03;3.60;;;;;;;16.47;52.79;100475.65;123815;1099;104425;-79
2023/05/29 02:58:54;;;;;;;8.03;3.23;;;;;;;16.47;52.25;100473.00;123379;1099;105674;-79
2023/05/29 03:01:22;;;;;;;8.20;3.35;;;;;;;16.48;52.82;100469.49;123659;1099;104328;-79
2023/05/29 03:03:51;;;;;;;7.20;3.40;;;;;;;16.47;52.63;100468.62;123726;1099;104281;-78
2023/05/29 03:06:19;;;;;;;6.43;3.13;;;;;;;16.48;52.82;100466.84;123651;1099;104264;-78
2023/05/29 03:08:49;;;;;;;7.03;3.27;;;;;;;16.47;52.71;100465.06;123375;1099;104297;-79
2023/05/29 03:11:18;;;;;;;9.10;3.53;;;;;;;16.48;52.48;100459.78;123578;1099;104322;-77
2023/05/29 03:13:49;;;;;;;8.63;3.40;;;;;;;16.49;53.08;100463.34;123640;1099;104264;-76
2023/05/29 03:16:17;;;;;;;9.97;3.63;;;;;;;16.50;52.53;100466.00;123432;1099;104280;-77
2023/05/29 03:18:46;;;;;;;8.73;3.83;;;;;;;16.52;53.13;100472.20;123726;1099;104207;-78
2023/05/29 03:21:16;;;;;;;10.67;3.63;;;;;;;16.53;52.62;100466.03;123674;1099;104386;-77
2023/05/29 03:23:44;;;;;;;10.97;3.73;;;;;;;16.57;53.18;100469.59;123693;1099;104508;-78
2023/05/29 03:26:13;;;;;;;10.90;3.80;;;;;;;16.61;53.46;100470.50;123621;1099;104216;-81
2023/05/29 03:28:41;;;;;;;10.80;4.20;;;;;;;16.61;53.13;100476.72;123729;1099;104248;-79
2023/05/29 03:31:11;;;;;;;9.87;3.80;;;;;;;16.65;53.61;100477.63;123656;1099;104267;-77
2023/05/29 03:33:39;;;;;;;8.57;3.60;;;;;;;16.66;53.93;100482.06;123555;1099;104395;-77
2023/05/29 03:36:20;;;;;;;13.80;4.30;;;;;;;16.65;53.67;100482.92;123649;1099;104300;-78
2023/05/29 03:38:49;;;;;;;14.07;4.60;;;;;;;16.61;53.86;100482.02;123548;1098;104256;-76
2023/05/29 03:41:20;;;;;;;9.97;3.63;;;;;;;16.62;53.96;100485.54;123545;1099;104338;-77
2023/05/29 03:43:48;;;;;;;12.20;4.50;;;;;;;16.62;54.47;100488.19;123391;1099;104376;-77
2023/05/29 03:46:17;;;;;;;10.27;3.60;;;;;;;16.61;54.59;100492.61;123307;1099;104307;-78
2023/05/29 03:48:46;;;;;;;11.07;4.80;;;;;;;16.62;54.94;100494.36;123271;1099;104354;-77
2023/05/29 03:51:15;;;;;;;11.33;4.53;;;;;;;16.64;54.56;100497.03;123409;1099;104361;-78
2023/05/29 03:53:43;;;;;;;11.30;4.30;;;;;;;16.62;54.71;100501.44;123348;1099;104335;-79
2023/05/29 03:56:12;;;;;;;9.97;4.20;;;;;;;16.64;54.98;100504.98;123616;1099;104302;-77
2023/05/29 03:58:40;;;;;;;11.50;4.10;;;;;;;16.64;54.53;100497.03;123596;1099;104278;-77
2023/05/29 04:01:09;;;;;;;12.35;4.10;;;;;;;16.69;54.70;100498.88;123480;1097;104316;-78
2023/05/29 04:03:38;;;;;;;12.47;4.80;;;;;;;16.73;54.68;100493.60;123456;1099;104319;-80
2023/05/29 04:06:08;;;;;;;9.23;3.93;;;;;;;16.77;54.97;100496.30;123515;1099;104406;-79
2023/05/29 04:08:37;;;;;;;10.13;4.20;;;;;;;16.83;55.46;100496.36;123439;1099;104335;-79
2023/05/29 04:11:06;;;;;;;14.60;4.13;;;;;;;16.88;55.25;100497.33;123269;1099;104359;-77
2023/05/29 04:13:34;;;;;;;10.93;4.30;;;;;;;16.97;55.30;100503.58;123994;1099;104172;-76
2023/05/29 04:16:03;;;;;;;8.70;4.00;;;;;;;17.06;55.34;100504.58;123735;1099;104245;-75
2023/05/29 04:18:32;;;;;;;12.60;4.23;;;;;;;17.16;55.24;100505.53;123688;1099;104267;-74
2023/05/29 04:21:01;;;;;;;10.27;3.93;;;;;;;17.26;55.15;100506.50;123720;1099;105612;-76
2023/05/29 04:23:29;;;;;;;10.67;4.27;;;;;;;17.36;55.10;100513.66;123441;1099;104429;-75
2023/05/29 04:26:00;;;;;;;12.80;4.10;;;;;;;17.45;55.11;100512.83;123722;1099;104307;-74
2023/05/29 04:31:29;;;;;;;7.10;3.43;;;;;;;17.71;54.82;100512.14;123369;1099;104377;-75
2023/05/29 04:34:00;;;;;;;9.97;4.00;;;;;;;17.83;54.72;100506.04;123526;1099;104268;-75
2023/05/29 04:36:32;;;;;;;9.53;4.17;;;;;;;17.93;54.58;100503.45;123636;1099;104325;-74
2023/05/29 04:39:08;;;;;;;10.00;4.25;;;;;;;18.04;54.65;100513.25;123620;1099;104396;-76
2023/05/29 04:41:37;;;;;;;9.33;4.10;;;;;;;18.13;54.46;100513.30;123551;1099;104351;-73
2023/05/29 04:44:07;;;;;;;9.07;3.87;;;;;;;18.20;54.27;100506.24;123457;1099;104326;-74
2023/05/29 04:46:44;;;;;;;10.80;4.00;;;;;;;18.27;54.09;100505.41;123442;1099;104341;-74
2023/05/29 04:49:13;;;;;;;9.97;4.07;;;;;;;18.32;53.67;100509.86;123821;1099;104336;-73
2023/05/29 04:51:41;;;;;;;9.27;3.80;;;;;;;18.36;53.65;100509.88;123548;1099;104428;-73
2023/05/29 04:54:11;;;;;;;10.45;4.20;;;;;;;18.37;53.57;100514.28;123775;1099;104168;-75
2023/05/29 04:56:43;;;;;;;10.00;4.20;;;;;;;18.37;53.08;100508.97;123785;1099;104363;-74
2023/05/29 04:59:13;;;;;;;11.77;3.90;;;;;;;18.39;53.07;100516.08;124666;1099;104239;-79
2023/05/29 05:01:43;;;;;;;9.77;3.60;;;;;;;18.42;52.97;100515.22;124257;1099;104316;-79
2023/05/29 05:04:11;;;;;;;8.50;3.90;;;;;;;18.42;52.63;100520.53;124617;1099;104249;-76
2023/05/29 05:10:20;;;;;;;9.30;3.95;;;;;;;18.45;53.06;100526.73;124021;1099;104353;-76
2023/05/29 05:12:49;;;;;;;6.83;3.90;;;;;;;18.52;52.93;100526.75;124382;1099;104213;-79
2023/05/29 05:15:19;;;;;;;14.20;4.00;;;;;;;18.57;52.96;100519.67;124409;1099;104224;-76
2023/05/29 05:17:47;;;;;;;8.77;3.93;;;;;;;18.61;52.53;100525.00;124034;1099;103791;-80
2023/05/29 05:20:16;;;;;;;8.50;3.80;;;;;;;18.60;52.77;100525.88;124241;1099;104341;-77
2023/05/29 05:22:46;;;;;;;9.90;4.03;;;;;;;18.63;52.71;100525.02;124101;1099;104405;-79
2023/05/29 05:25:15;;;;;;;9.57;3.63;;;;;;;18.65;52.44;100529.45;123970;1099;104233;-78
2023/05/29 05:27:45;;;;;;;8.17;3.60;;;;;;;18.71;52.48;100523.25;124208;1099;104178;-80
2023/05/29 05:30:15;;;;;;;9.27;3.70;;;;;;;18.81;52.40;100524.19;124523;1101;104163;-79
2023/05/29 05:32:44;;;;;;;7.97;3.57;;;;;;;18.94;52.38;100527.78;124393;1099;104293;-78
2023/05/29 05:35:15;;;;;;;7.90;3.80;;;;;;;19.07;51.99;100528.68;124609;1099;104249;-81
2023/05/29 05:38:05;;;;;;;11.07;4.30;;;;;;;19.19;52.47;100528.70;124512;1100;104358;-76
2023/05/29 05:40:34;;;;;;;13.73;4.43;;;;;;;19.33;52.50;100532.23;124603;1099;104235;-76
2023/05/29 05:43:10;;;;;;;11.17;4.13;;;;;;;19.46;51.88;100529.58;124561;1099;104342;-82
2023/05/29 05:46:01;;;;;;;12.97;4.20;;;;;;;19.58;51.97;100526.91;125222;1099;104285;-76
2023/05/29 05:48:31;;;;;;;8.73;3.90;;;;;;;19.68;51.62;100526.03;124482;1099;104425;-74
2023/05/29 05:51:00;;;;;;;8.53;4.00;;;;;;;19.79;51.38;100522.48;124877;1099;104293;-76
2023/05/29 05:53:28;;;;;;;6.27;3.97;;;;;;;19.92;51.09;100524.24;124466;1099;104252;-76
2023/05/29 05:55:57;;;;;;;11.90;4.40;;;;;;;20.03;50.34;100538.41;124889;1099;104127;-78
2023/05/29 05:58:27;;;;;;;13.27;4.07;;;;;;;20.09;50.36;100533.06;125031;1099;102722;-77
2023/05/29 06:00:59;;;;;;;9.80;3.73;;;;;;;20.19;50.74;100527.70;125141;1099;102787;-82
2023/05/29 06:03:28;;;;;;;11.47;4.07;;;;;;;20.30;50.62;100533.88;124941;1099;104242;-77
2023/05/29 06:06:03;;;;;;;8.40;4.00;;;;;;;20.38;50.02;100524.09;125408;1099;102894;-76
2023/05/29 06:08:32;;;;;;;10.30;4.30;;;;;;;20.48;50.79;100519.60;125300;1099;104111;-76
2023/05/29 06:11:04;;;;;;;8.27;4.00;;;;;;;20.56;50.45;100519.56;124939;1099;104310;-73
2023/05/29 06:13:33;;;;;;;11.15;3.90;;;;;;;20.53;50.01;100519.58;124484;1099;104178;-77
2023/05/29 06:16:08;;;;;;;10.07;4.10;;;;;;;20.53;50.09;100516.91;124498;1099;104190;-79
2023/05/29 06:18:37;;;;;;;13.60;4.80;;;;;;;20.52;50.16;100517.80;124739;1099;103696;-76
2023/05/29 06:21:09;;;;;;;10.17;3.93;;;;;;;20.53;50.27;100515.13;124430;1099;102598;-81
2023/05/29 06:23:41;;;;;;;12.30;4.60;;;;;;;20.62;49.32;100516.88;124478;1099;104225;-75
2023/05/29 06:26:12;;;;;;;9.10;4.00;;;;;;;20.60;50.19;100513.30;124666;1099;104190;-74
2023/05/29 06:28:41;;;;;;;10.43;4.33;;;;;;;20.60;49.16;100508.88;124751;1099;102249;-75
2023/05/29 06:31:09;;;;;;;8.10;3.70;;;;;;;20.62;49.80;100512.41;124832;1098;104248;-76
2023/05/29 06:33:38;;;;;;;11.53;4.20;;;;;;;20.67;50.05;100512.42;124721;1099;104336;-73
2023/05/29 06:36:08;;;;;;;9.60;3.60;;;;;;;20.68;49.85;100505.30;124777;1099;104309;-78
2023/05/29 06:39:03;;;;;;;10.27;3.93;;;;;;;20.65;49.50;100504.44;124349;1102;103192;-76
2023/05/29 06:41:43;;;;;;;11.10;4.17;;;;;;;20.65;49.84;100500.89;124662;1099;104235;-73
2023/05/29 06:44:12;;;;;;;9.77;3.87;;;;;;;20.62;49.50;100508.88;124314;1099;103597;-74
2023/05/29 06:46:41;;;;;;;13.47;4.37;;;;;;;20.62;49.23;100506.20;124220;1099;104220;-75
2023/05/29 06:49:10;;;;;;;9.23;4.03;;;;;;;20.69;48.80;100513.29;124652;1099;105030;-76
2023/05/29 06:51:39;;;;;;;13.10;4.20;;;;;;;20.74;48.83;100508.84;124586;1099;104207;-78
2023/05/29 06:54:25;;;;;;;10.97;3.80;;;;;;;20.74;49.19;100513.27;124709;1099;102041;-74
2023/05/29 06:56:54;;;;;;;9.60;4.20;;;;;;;20.65;49.48;100509.77;124610;1099;103449;-76
2023/05/29 06:59:23;;;;;;;14.13;4.17;;;;;;;20.59;49.21;100495.56;124966;1099;104361;-80
2023/05/29 07:01:55;;;;;;;10.80;4.67;;;;;;;20.65;48.72;100493.77;125774;1098;104188;-79
2023/05/29 07:04:25;;;;;;;13.03;4.60;;;;;;;20.77;48.83;100494.58;124500;1099;104157;-77
2023/05/29 07:06:53;;;;;;;13.97;4.73;;;;;;;20.96;48.69;100490.03;124980;1099;102714;-77
2023/05/29 07:09:27;;;;;;;9.23;4.50;;;;;;;21.19;49.42;100495.16;124863;1099;104243;-77
2023/05/29 07:11:56;;;;;;;11.47;4.50;;;;;;;21.45;49.46;100489.61;125045;1099;104239;-81
2023/05/29 07:14:25;;;;;;;10.07;4.20;;;;;;;21.69;48.88;100496.54;124515;1099;104237;-76
2023/05/29 07:16:54;;;;;;;12.77;4.80;;;;;;;21.94;48.60;100492.70;124522;1099;104265;-76
2023/05/29 07:19:24;;;;;;;13.37;4.10;;;;;;;22.22;48.19;100490.59;124466;1099;104271;-77
2023/05/29 07:21:52;;;;;;;10.37;4.23;;;;;;;22.42;47.67;100487.69;124854;1097;103146;-76
2023/05/29 07:24:22;;;;;;;8.77;4.10;;;;;;;22.47;47.67;100488.54;124469;1099;103176;-77
2023/05/29 07:26:51;;;;;;;9.17;4.40;;;;;;;22.56;47.79;100490.18;124627;1099;104137;-78
2023/05/29 07:29:22;;;;;;;10.23;4.27;;;;;;;22.66;47.15;100488.25;124966;1098;104261;-80
2023/05/29 07:31:55;;;;;;;11.27;4.33;;;;;;;22.82;46.84;100481.78;125029;1099;104195;-78
2023/05/29 07:34:24;;;;;;;11.80;4.13;;;;;;;23.00;47.06;100485.98;124406;1099;104341;-80
2023/05/29 07:37:01;;;;;;;16.97;4.10;;;;;;;22.96;46.16;100487.80;124515;1099;104386;-78
2023/05/29 07:39:30;;;;;;;7.80;4.00;;;;;;;22.92;46.22;100487.87;124419;1099;104304;-75
2023/05/29 07:42:01;;;;;;;11.77;4.40;;;;;;;22.94;46.29;100489.62;124400;1099;104182;-75
2023/05/29 07:44:30;;;;;;;8.33;4.40;;;;;;;23.05;46.07;100488.59;124519;1099;104255;-75
2023/05/29 07:46:58;;;;;;;9.95;4.10;;;;;;;23.24;45.38;100482.03;124275;1099;102157;-75
2023/05/29 07:49:37;;;;;;;11.00;4.20;;;;;;;23.42;45.53;100478.17;124560;1099;104233;-77
2023/05/29 07:52:11;;;;;;;12.93;4.47;;;;;;;23.58;45.23;100476.09;124409;1099;104251;-77
2023/05/29 07:54:42;;;;;;;14.00;4.47;;;;;;;23.67;45.09;100473.24;124272;1099;104271;-81
2023/05/29 07:57:11;;;;;;;8.53;3.87;;;;;;;23.80;45.19;100465.84;124698;1099;103240;-80
2023/05/29 07:59:43;;;;;;;10.27;4.30;;;;;;;23.91;44.70;100465.67;124940;1099;102617;-78
2023/05/29 08:02:12;;;;;;;11.43;4.30;;;;;;;23.94;44.30;100467.42;124705;1099;104201;-78
2023/05/29 08:05:08;;;;;;;11.27;4.33;;;;;;;23.93;44.37;100477.23;124923;1099;103809;-74
2023/05/29 08:07:38;;;;;;;7.83;4.10;;;;;;;23.88;44.25;100468.41;124944;1099;104169;-74
2023/05/29 08:10:09;;;;;;;9.40;4.30;;;;;;;23.95;44.28;100461.13;124898;1099;103461;-79
2023/05/29 08:12:38;;;;;;;9.40;3.97;;;;;;;24.12;43.94;100456.32;124406;1099;102421;-74
2023/05/29 08:15:08;;;;;;;10.50;4.27;;;;;;;24.33;44.24;100454.09;124872;1099;104259;-78
2023/05/29 08:17:38;;;;;;;8.97;4.00;;;;;;;24.57;43.76;100464.31;124652;1099;104191;-74
2023/05/29 08:20:10;;;;;;;9.90;4.10;;;;;;;24.72;44.07;100457.69;124899;1099;104229;-76
2023/05/29 08:22:41;;;;;;;12.67;4.80;;;;;;;24.89;43.21;100456.41;125042;1099;104264;-75
2023/05/29 08:25:17;;;;;;;22.47;5.43;;;;;;;25.06;43.22;100456.88;125916;1098;102937;-76
2023/05/29 08:27:46;;;;;;;12.20;4.17;;;;;;;25.18;42.82;100461.06;124598;1099;104352;-78
2023/05/29 08:30:16;;;;;;;11.87;3.97;;;;;;;25.33;43.45;100448.19;124791;1098;104192;-77
2023/05/29 08:32:44;;;;;;;11.60;4.20;;;;;;;25.49;43.08;100452.22;124590;1099;104322;-76
2023/05/29 08:35:16;;;;;;;14.60;4.87;;;;;;;25.64;42.84;100445.56;124362;1102;104179;-77
2023/05/29 08:37:44;;;;;;;12.53;4.37;;;;;;;25.77;42.78;100446.09;124722;1099;104316;-79
2023/05/29 08:40:13;;;;;;;10.83;4.07;;;;;;;25.84;41.91;100447.69;124766;1099;104159;-77
2023/05/29 08:42:48;;;;;;;9.67;3.73;;;;;;;25.80;42.21;100437.94;124885;1098;104220;-77
2023/05/29 08:45:19;;;;;;;7.87;4.30;;;;;;;25.72;41.36;100450.72;124756;1099;104172;-73
2023/05/29 08:47:54;;;;;;;9.73;4.47;;;;;;;25.63;40.97;100449.16;124804;1099;103592;-81
2023/05/29 08:50:26;;;;;;;10.57;4.30;;;;;;;25.61;40.96;100437.58;124893;1099;104212;-75
2023/05/29 08:52:56;;;;;;;11.30;4.43;;;;;;;25.69;41.07;100440.05;124811;1099;104383;-77
2023/05/29 08:55:26;;;;;;;8.77;4.10;;;;;;;25.75;40.99;100446.13;124920;1099;104270;-81
2023/05/29 08:57:56;;;;;;;9.87;4.30;;;;;;;25.81;40.69;100445.09;124794;1099;104158;-77
2023/05/29 09:00:28;;;;;;;11.30;4.27;;;;;;;25.75;40.35;100450.63;124840;1099;104150;-80
2023/05/29 09:02:59;;;;;;;7.22;4.08;;;;;;;25.72;40.82;100445.34;124576;1099;102644;-83
2023/05/29 09:05:27;;;;;;;11.93;4.47;;;;;;;25.88;40.35;100445.78;124605;1099;104783;-80
2023/05/29 09:07:56;;;;;;;8.63;4.17;;;;;;;26.02;40.21;100443.61;124836;1099;104242;-74
2023/05/29 09:10:26;;;;;;;9.63;4.07;;;;;;;26.10;40.43;100441.59;124744;1099;104264;-74
2023/05/29 09:12:55;;;;;;;10.83;4.20;;;;;;;26.11;39.75;100443.34;124512;1099;102861;-77
2023/05/29 09:15:25;;;;;;;8.33;4.23;;;;;;;26.14;40.04;100431.62;124854;1098;104243;-75
2023/05/29 09:17:55;;;;;;;7.43;3.87;;;;;;;26.17;39.33;100432.40;124772;1098;104198;-76
2023/05/29 09:20:25;;;;;;;9.23;3.80;;;;;;;26.06;39.55;100426.47;124623;1099;104176;-82
2023/05/29 09:22:58;;;;;;;9.27;3.93;;;;;;;26.09;39.78;100425.51;124982;1099;104268;-81
2023/05/29 09:25:30;;;;;;;9.08;3.80;;;;;;;26.07;39.55;100424.65;124924;1099;102659;-77
2023/05/29 09:28:02;;;;;;;10.53;4.30;;;;;;;26.08;39.80;100415.67;124880;1099;104242;-78
2023/05/29 09:30:36;;;;;;;9.37;4.40;;;;;;;25.98;39.40;100413.25;124878;1099;104231;-83
2023/05/29 09:33:06;;;;;;;11.60;4.33;;;;;;;25.93;39.13;100417.86;124853;1099;104281;-79
2023/05/29 09:35:36;;;;;;;9.73;4.30;;;;;;;25.93;38.99;100414.27;124353;1099;104325;-79
2023/05/29 09:38:07;;;;;;;8.93;4.00;;;;;;;26.05;39.25;100413.94;125040;1099;104168;-81
2023/05/29 09:40:39;;;;;;;10.70;4.40;;;;;;;26.17;39.23;100407.33;124728;1102;104258;-80
2023/05/29 09:43:12;;;;;;;12.33;4.20;;;;;;;26.19;39.24;100397.39;125185;1099;104245;-79
2023/05/29 09:45:44;;;;;;;9.40;4.40;;;;;;;26.16;39.18;100408.24;124883;1099;104180;-82
2023/05/29 09:48:32;;;;;;;9.25;3.80;;;;;;;26.05;39.21;100402.32;126475;1099;102095;-80
2023/05/29 09:51:10;;;;;;;13.20;5.00;;;;;;;25.92;39.05;100401.78;125631;1099;102090;-82
2023/05/29 09:53:44;;;;;;;8.00;4.00;;;;;;;26.02;39.15;100405.97;125952;1099;104230;-82
2023/05/29 09:56:21;;;;;;;10.43;4.20;;;;;;;26.05;38.32;100403.19;125658;1099;104396;-81
2023/05/29 09:58:56;;;;;;;10.27;4.67;;;;;;;26.09;38.79;100399.49;125442;1099;104168;-78
2023/05/29 10:01:28;;;;;;;11.00;3.97;;;;;;;26.23;38.62;100388.31;125564;1099;102898;-77
2023/05/29 10:04:02;;;;;;;10.70;4.20;;;;;;;26.41;39.15;100389.53;125653;1099;104159;-82
2023/05/29 10:06:41;;;;;;;8.08;4.20;;;;;;;26.57;38.74;100389.04;125732;1099;102994;-83
2023/05/29 10:09:16;;;;;;;9.17;4.10;;;;;;;26.54;38.07;100393.60;125835;1099;103147;-83
2023/05/29 10:11:50;;;;;;;11.80;4.30;;;;;;;26.32;37.63;100392.55;126456;1099;102008;-84
2023/05/29 10:14:24;;;;;;;9.73;4.35;;;;;;;26.08;38.04;100394.16;117633;1099;10001580;-86
2023/05/29 10:17:41;;;;;;;9.03;4.30;;;;;;;25.99;38.13;100389.93;126394;1099;103564;-84
2023/05/29 10:20:36;;;;;;;9.10;4.27;;;;;;;25.98;37.37;100397.13;126286;1099;108202;-78
2023/05/29 10:23:15;;;;;;;8.37;4.53;;;;;;;25.99;37.70;100396.20;125714;1099;102039;-82
2023/05/29 10:25:54;;;;;;;9.13;4.40;;;;;;;26.10;38.15;100398.58;125407;1099;104219;-79
2023/05/29 10:28:24;;;;;;;8.07;4.50;;;;;;;26.10;37.72;100387.82;125504;1099;104316;-78
2023/05/29 10:31:19;;;;;;;;;;;;;;;;;;;;;
2023/05/29 10:33:59;;;;;;;9.20;3.90;;;;;;;26.29;37.50;100384.56;125464;1099;104178;-81
2023/05/29 10:36:36;;;;;;;10.83;4.73;;;;;;;26.39;37.61;100377.95;125792;1099;102283;-81
2023/05/29 10:39:09;;;;;;;9.07;3.87;;;;;;;26.33;37.23;100388.91;125416;1099;102346;-80
2023/05/29 10:41:41;;;;;;;8.43;4.73;;;;;;;26.31;37.13;100375.50;126280;1099;103139;-82
2023/05/29 10:44:43;;;;;;;11.10;4.70;;;;;;;26.36;37.12;100364.59;126334;1099;103495;-80
2023/05/29 10:47:25;;;;;;;11.93;4.60;;;;;;;26.44;36.73;100381.36;117307;1099;10001643;-81
2023/05/29 10:50:03;;;;;;;9.43;4.50;;;;;;;26.52;37.15;100363.19;125320;1099;104335;-78
2023/05/29 10:52:35;;;;;;;8.97;4.10;;;;;;;26.53;36.47;100358.67;125114;1099;104267;-84
2023/05/29 10:55:16;;;;;;;12.07;4.20;;;;;;;26.58;36.35;100359.39;126016;1098;104297;-79
2023/05/29 10:57:54;;;;;;;11.33;4.20;;;;;;;26.57;36.78;100365.73;124865;1099;104313;-80
2023/05/29 11:00:44;;;;;;;6.63;4.07;;;;;;;26.49;36.93;100357.91;125079;1098;104248;-82
2023/05/29 11:03:15;;;;;;;;;;;;;;;26.49;37.06;100363.28;124862;1099;104162;-80
2023/05/29 11:06:01;;;;;;;9.50;4.30;;;;;;;26.45;37.15;100350.85;125127;1099;103465;-82
2023/05/29 11:08:45;;;;;;;12.83;4.60;;;;;;;26.50;37.07;100353.39;125825;1099;102861;-83
2023/05/29 11:11:35;;;;;;;9.60;3.80;;;;;;;26.60;37.23;100353.96;125966;1099;104208;-83
2023/05/29 11:14:19;;;;;;;8.47;4.13;;;;;;;26.79;36.98;100341.70;125027;1099;102669;-80
2023/05/29 11:16:51;;;;;;;10.63;5.15;;;;;;;26.90;36.81;100347.58;125142;1099;104264;-80
2023/05/29 11:19:26;;;;;;;12.67;5.20;;;;;;;27.01;36.66;100338.27;124875;1100;104299;-78
2023/05/29 11:22:24;;;;;;;6.15;4.00;;;;;;;27.15;36.97;100337.78;125264;1099;103872;-79
2023/05/29 11:25:00;;;;;;;11.30;4.40;;;;;;;27.26;36.65;100336.44;125612;1098;103164;-80
2023/05/29 11:27:58;;;;;;;8.33;4.23;;;;;;;27.42;35.86;100330.53;125844;1099;102125;-79
2023/05/29 11:30:30;;;;;;;13.13;4.50;;;;;;;27.39;35.80;100336.90;125588;1090;102412;-77
2023/05/29 11:33:08;;;;;;;10.07;4.57;;;;;;;27.48;36.40;100334.83;125135;1102;103376;-76
2023/05/29 11:35:44;;;;;;;5.63;3.70;;;;;;;27.60;35.79;100328.98;124787;1102;104182;-79